Time;durP1;ratioP1;P1;durP2;ratioP2;P2;SDS_P1;SDS_P2;PMS_P1;PMS_P2;Temp;Humidity;BMP_temperature;BMP_pressure;BME280_temperature;BME280_humidity;BME280_pressure;Samples;Min_cycle;Max_cycle;Signal;HPM_P1;HPM_P2
2022/11/06 00:00:03;;;;;;;;;;;18.60;51.40;;;;;;5092631;28;19987;-61
2022/11/06 00:02:29;;;;;;;;;;;18.60;51.40;;;;;;5073456;28;19938;-60
2022/11/06 00:06:46;;;;;;;;;;;18.60;51.50;;;;;;5074142;28;20398;-60
2022/11/06 00:07:39;;;;;;;;;;;18.60;51.50;;;;;;5092550;28;19947;-60
2022/11/06 00:10:05;;;;;;;;;;;18.60;51.50;;;;;;5057867;28;19955;-60
2022/11/06 00:12:30;;;;;;;;;;;18.60;51.30;;;;;;5057343;28;19942;-61
2022/11/06 00:14:56;;;;;;;;;;;18.60;51.50;;;;;;5072792;28;20307;-60
2022/11/06 00:17:21;;;;;;;;;;;18.50;51.40;;;;;;5074468;28;20326;-60
2022/11/06 00:19:47;;;;;;;;;;;18.50;51.40;;;;;;5074413;28;20325;-60
2022/11/06 00:22:12;;;;;;;;;;;18.50;51.50;;;;;;5084773;28;20443;-60
2022/11/06 00:24:38;;;;;;;;;;;18.50;51.50;;;;;;5061488;28;19916;-60
2022/11/06 00:27:03;;;;;;;;;;;18.50;51.60;;;;;;5072123;28;19931;-60
2022/11/06 00:29:28;;;;;;;;;;;18.50;51.50;;;;;;5092331;28;19981;-60
2022/11/06 00:31:54;;;;;;;;;;;18.50;51.50;;;;;;5068438;28;19912;-60
2022/11/06 00:34:19;;;;;;;;;;;18.50;51.50;;;;;;5068994;28;19912;-59
2022/11/06 00:36:45;;;;;;;;;;;18.50;51.40;;;;;;5091111;28;19912;-60
2022/11/06 00:39:10;;;;;;;;;;;18.40;51.30;;;;;;5072191;28;19913;-60
2022/11/06 00:41:36;;;;;;;;;;;18.40;51.40;;;;;;5058098;28;19952;-61
2022/11/06 00:44:01;;;;;;;;;;;18.40;51.40;;;;;;5078130;28;19997;-59
2022/11/06 00:46:27;;;;;;;;;;;18.40;51.40;;;;;;5074205;28;19958;-59
2022/11/06 00:48:52;;;;;;;;;;;18.40;51.40;;;;;;5074098;28;19961;-59
2022/11/06 00:51:22;;;;;;;;;;;18.40;51.40;;;;;;5073352;28;19977;-59
2022/11/06 00:53:51;;;;;;;;;;;18.40;51.30;;;;;;5073570;28;19995;-59
2022/11/06 00:56:17;;;;;;;;;;;18.40;51.50;;;;;;5057028;28;19909;-59
2022/11/06 00:58:43;;;;;;;;;;;18.30;51.30;;;;;;5057096;28;20424;-59
2022/11/06 01:01:12;;;;;;;;;;;18.30;51.30;;;;;;5073109;28;19920;-59
2022/11/06 01:03:38;;;;;;;;;;;18.30;51.50;;;;;;5109924;28;19908;-59
2022/11/06 01:06:30;;;;;;;;;;;18.30;51.40;;;;;;5077216;28;19939;-60
2022/11/06 01:08:56;;;;;;;;;;;18.30;51.50;;;;;;5077910;28;19912;-60
2022/11/06 01:11:28;;;;;;;;;;;18.30;51.70;;;;;;5067933;28;19912;-60
2022/11/06 01:13:54;;;;;;;;;;;18.30;51.50;;;;;;5073648;28;19912;-60
2022/11/06 01:16:20;;;;;;;;;;;18.20;51.40;;;;;;5074005;28;20417;-60
2022/11/06 01:18:45;;;;;;;;;;;18.20;51.50;;;;;;5073831;28;19933;-59
2022/11/06 01:21:13;;;;;;;;;;;18.20;51.60;;;;;;5073017;28;20347;-60
2022/11/06 01:23:38;;;;;;;;;;;18.10;51.70;;;;;;5071441;28;20062;-60
2022/11/06 01:26:04;;;;;;;;;;;18.20;51.70;;;;;;5058939;28;20414;-60
2022/11/06 01:28:30;;;;;;;;;;;18.20;51.70;;;;;;5061386;28;19971;-60
2022/11/06 01:30:55;;;;;;;;;;;18.20;51.70;;;;;;5046668;28;19962;-60
2022/11/06 01:33:21;;;;;;;;;;;18.10;51.50;;;;;;5077190;28;20287;-59
2022/11/06 01:35:47;;;;;;;;;;;18.10;51.70;;;;;;5092458;28;19912;-59
2022/11/06 01:38:12;;;;;;;;;;;18.10;51.60;;;;;;5055846;28;19912;-59
2022/11/06 01:40:38;;;;;;;;;;;18.10;51.70;;;;;;5076962;28;19983;-59
2022/11/06 01:43:05;;;;;;;;;;;18.10;51.90;;;;;;5070318;28;20003;-59
2022/11/06 01:45:32;;;;;;;;;;;18.10;51.80;;;;;;5055644;28;19912;-60
2022/11/06 01:47:58;;;;;;;;;;;18.00;51.80;;;;;;5075061;28;20599;-59
2022/11/06 01:50:24;;;;;;;;;;;18.10;51.90;;;;;;5067858;28;19999;-61
2022/11/06 01:52:49;;;;;;;;;;;18.00;51.80;;;;;;5071910;28;19912;-60
2022/11/06 01:55:25;;;;;;;;;;;18.10;52.00;;;;;;5076230;28;19935;-60
2022/11/06 01:57:50;;;;;;;;;;;18.00;51.80;;;;;;5075192;28;19916;-60
2022/11/06 02:00:16;;;;;;;;;;;18.10;51.80;;;;;;5093309;28;20059;-60
2022/11/06 02:02:41;;;;;;;;;;;18.10;51.90;;;;;;5075046;28;19912;-60
2022/11/06 02:05:07;;;;;;;;;;;18.10;51.90;;;;;;5077653;28;19954;-60
2022/11/06 02:07:32;;;;;;;;;;;18.10;51.90;;;;;;5057787;28;19916;-60
2022/11/06 02:09:58;;;;;;;;;;;18.10;51.80;;;;;;5055520;28;19920;-59
2022/11/06 02:12:43;;;;;;;;;;;18.00;51.70;;;;;;5047701;28;19991;-59
2022/11/06 02:15:09;;;;;;;;;;;18.10;51.80;;;;;;5053663;28;19916;-59
2022/11/06 02:17:38;;;;;;;;;;;18.10;51.60;;;;;;5092025;28;19916;-59
2022/11/06 02:20:06;;;;;;;;;;;18.10;51.50;;;;;;5091165;28;19920;-59
2022/11/06 02:22:50;;;;;;;;;;;18.20;51.50;;;;;;5073148;28;20287;-60
2022/11/06 02:25:31;;;;;;;;;;;18.20;51.40;;;;;;5075270;28;19912;-59
2022/11/06 02:28:07;;;;;;;;;;;18.30;51.20;;;;;;5075391;28;19930;-59
2022/11/06 02:30:33;;;;;;;;;;;18.40;51.00;;;;;;5059729;28;19915;-59
2022/11/06 02:33:00;;;;;;;;;;;18.40;50.80;;;;;;5055513;28;20318;-59
2022/11/06 02:35:31;;;;;;;;;;;18.50;50.90;;;;;;5068833;28;19918;-59
2022/11/06 02:38:19;;;;;;;;;;;18.60;50.90;;;;;;5074364;28;20658;-59
2022/11/06 02:40:46;;;;;;;;;;;18.60;50.80;;;;;;5062951;28;19970;-59
2022/11/06 02:43:12;;;;;;;;;;;18.70;50.60;;;;;;5075398;28;19956;-59
2022/11/06 02:45:44;;;;;;;;;;;18.80;50.40;;;;;;5076196;28;19947;-59
2022/11/06 02:48:10;;;;;;;;;;;18.90;50.30;;;;;;5075091;28;19923;-59
2022/11/06 02:50:38;;;;;;;;;;;19.00;50.20;;;;;;5076183;28;20002;-60
2022/11/06 02:53:04;;;;;;;;;;;19.00;49.90;;;;;;5055289;28;19916;-59
2022/11/06 02:55:33;;;;;;;;;;;19.10;49.90;;;;;;5095986;28;20347;-59
2022/11/06 02:58:03;;;;;;;;;;;19.10;49.70;;;;;;5075058;28;19920;-59
2022/11/06 03:00:28;;;;;;;;;;;19.20;49.80;;;;;;5075914;28;19915;-59
2022/11/06 03:02:58;;;;;;;;;;;19.20;49.70;;;;;;5064114;28;19938;-59
2022/11/06 03:05:37;;;;;;;;;;;19.20;49.60;;;;;;5046177;28;19985;-60
2022/11/06 03:08:05;;;;;;;;;;;19.30;49.70;;;;;;5074481;28;19912;-59
2022/11/06 03:10:32;;;;;;;;;;;19.30;49.60;;;;;;5090876;28;19947;-60
2022/11/06 03:12:59;;;;;;;;;;;19.30;49.40;;;;;;5054565;28;19916;-59
2022/11/06 03:15:31;;;;;;;;;;;19.40;49.40;;;;;;5064472;28;19912;-60
2022/11/06 03:18:03;;;;;;;;;;;19.40;49.30;;;;;;5074313;28;20415;-60
2022/11/06 03:20:30;;;;;;;;;;;19.40;49.30;;;;;;5091676;28;19924;-60
2022/11/06 03:23:04;;;;;;;;;;;19.40;49.30;;;;;;5093459;28;19915;-60
2022/11/06 03:25:32;;;;;;;;;;;19.40;49.30;;;;;;5090130;28;20419;-60
2022/11/06 03:28:11;;;;;;;;;;;19.40;49.30;;;;;;5066369;28;19935;-60
2022/11/06 03:30:37;;;;;;;;;;;19.40;49.30;;;;;;5064796;28;19977;-60
2022/11/06 03:33:11;;;;;;;;;;;19.40;49.20;;;;;;5069641;28;19919;-59
2022/11/06 03:35:39;;;;;;;;;;;19.40;49.20;;;;;;5052835;28;19913;-60
2022/11/06 03:38:06;;;;;;;;;;;19.40;49.30;;;;;;5043401;28;20481;-60
2022/11/06 03:40:33;;;;;;;;;;;19.40;49.30;;;;;;5050441;28;20275;-60
2022/11/06 03:43:01;;;;;;;;;;;19.40;49.30;;;;;;5057023;28;19920;-60
2022/11/06 03:45:26;;;;;;;;;;;19.40;49.30;;;;;;5058139;28;19919;-61
2022/11/06 03:47:55;;;;;;;;;;;19.40;49.30;;;;;;5057365;28;19916;-60
2022/11/06 03:50:25;;;;;;;;;;;19.40;49.20;;;;;;5068087;28;19913;-60
2022/11/06 03:53:01;;;;;;;;;;;19.50;49.10;;;;;;5058043;28;19919;-60
2022/11/06 03:55:28;;;;;;;;;;;19.50;49.00;;;;;;5073656;28;20393;-60
2022/11/06 03:57:55;;;;;;;;;;;19.50;49.10;;;;;;5092177;28;19918;-60
2022/11/06 04:00:20;;;;;;;;;;;19.50;49.70;;;;;;5074840;28;19912;-60
2022/11/06 04:03:03;;;;;;;;;;;19.50;49.10;;;;;;5074220;28;19947;-60
2022/11/06 04:05:30;;;;;;;;;;;19.50;49.10;;;;;;5070599;28;19962;-60
2022/11/06 04:16:16;;;;;;;;;;;19.50;49.00;;;;;;5081401;28;20022;-60
2022/11/06 04:18:42;;;;;;;;;;;19.50;49.00;;;;;;5073620;28;19999;-60
2022/11/06 04:21:26;;;;;;;;;;;19.50;48.90;;;;;;5074305;28;19908;-60
2022/11/06 04:27:00;;;;;;;;;;;19.50;48.90;;;;;;5095887;28;20042;-60
2022/11/06 04:29:36;;;;;;;;;;;19.50;48.90;;;;;;5091344;28;19923;-60
2022/11/06 04:32:03;;;;;;;;;;;19.50;48.80;;;;;;5047126;28;19912;-60
2022/11/06 04:34:47;;;;;;;;;;;19.50;48.90;;;;;;5075889;28;19916;-60
2022/11/06 04:37:20;;;;;;;;;;;19.50;48.80;;;;;;5092376;28;20359;-60
2022/11/06 04:39:45;;;;;;;;;;;19.50;48.80;;;;;;5053929;28;20356;-60
2022/11/06 04:42:23;;;;;;;;;;;19.50;48.80;;;;;;5057782;28;19962;-60
2022/11/06 04:44:49;;;;;;;;;;;19.50;48.80;;;;;;5073862;28;19916;-60
2022/11/06 04:47:18;;;;;;;;;;;19.50;48.90;;;;;;5074027;28;19912;-60
2022/11/06 04:49:44;;;;;;;;;;;19.50;48.80;;;;;;5092192;28;19942;-60
2022/11/06 04:52:14;;;;;;;;;;;19.50;48.80;;;;;;5073917;28;20370;-60
2022/11/06 04:54:39;;;;;;;;;;;19.50;48.70;;;;;;5072912;28;20006;-60
2022/11/06 04:57:05;;;;;;;;;;;19.50;48.70;;;;;;5073768;28;20422;-60
2022/11/06 04:59:31;;;;;;;;;;;19.50;48.70;;;;;;5073767;28;19931;-60
2022/11/06 05:01:57;;;;;;;;;;;19.50;48.80;;;;;;5077873;28;19933;-60
2022/11/06 05:04:22;;;;;;;;;;;19.50;48.80;;;;;;5077192;28;20367;-60
2022/11/06 05:06:47;;;;;;;;;;;19.50;49.10;;;;;;5075933;28;20386;-60
2022/11/06 05:09:13;;;;;;;;;;;19.50;49.00;;;;;;5064334;28;20268;-60
2022/11/06 05:11:38;;;;;;;;;;;19.50;48.80;;;;;;5073469;28;19916;-60
2022/11/06 05:14:04;;;;;;;;;;;19.50;48.80;;;;;;5075492;28;19920;-59
2022/11/06 05:16:29;;;;;;;;;;;19.40;48.80;;;;;;5084792;28;19908;-60
2022/11/06 05:18:55;;;;;;;;;;;19.40;48.90;;;;;;5068861;28;19908;-60
2022/11/06 05:24:04;;;;;;;;;;;19.40;48.70;;;;;;5080501;28;19919;-60
2022/11/06 05:26:30;;;;;;;;;;;19.40;49.00;;;;;;5077269;28;19912;-61
2022/11/06 05:28:55;;;;;;;;;;;19.40;49.00;;;;;;5074524;28;19926;-60
2022/11/06 05:31:20;;;;;;;;;;;19.30;49.00;;;;;;5077554;28;20000;-60
2022/11/06 05:33:46;;;;;;;;;;;19.30;48.90;;;;;;5095875;28;19915;-60
2022/11/06 05:36:11;;;;;;;;;;;19.40;48.90;;;;;;5060687;28;19908;-60
2022/11/06 05:38:37;;;;;;;;;;;19.40;48.70;;;;;;5075791;28;20387;-59
2022/11/06 05:41:02;;;;;;;;;;;19.40;48.70;;;;;;5077015;28;20295;-59
2022/11/06 05:43:28;;;;;;;;;;;19.40;48.70;;;;;;5095052;28;19957;-60
2022/11/06 05:45:53;;;;;;;;;;;19.40;48.70;;;;;;5077339;28;19912;-59
2022/11/06 05:48:19;;;;;;;;;;;19.40;48.70;;;;;;5060513;28;19980;-59
2022/11/06 05:50:44;;;;;;;;;;;19.40;48.70;;;;;;5075454;28;19976;-59
2022/11/06 05:53:10;;;;;;;;;;;19.40;48.50;;;;;;5076935;28;19919;-60
2022/11/06 05:55:35;;;;;;;;;;;19.40;48.60;;;;;;5095469;28;19915;-59
2022/11/06 05:58:00;;;;;;;;;;;19.40;48.50;;;;;;5094532;28;19912;-59
2022/11/06 06:00:26;;;;;;;;;;;19.40;48.50;;;;;;5076955;28;20395;-60
2022/11/06 06:02:51;;;;;;;;;;;19.40;48.50;;;;;;5092820;28;20481;-60
2022/11/06 06:05:17;;;;;;;;;;;19.40;48.50;;;;;;5062727;28;19912;-60
2022/11/06 06:07:42;;;;;;;;;;;19.40;48.50;;;;;;5064466;28;19920;-59
2022/11/06 06:10:08;;;;;;;;;;;19.40;48.50;;;;;;5076860;28;19934;-59
2022/11/06 06:12:33;;;;;;;;;;;19.40;48.70;;;;;;5058870;28;19916;-60
2022/11/06 06:14:59;;;;;;;;;;;19.40;48.50;;;;;;5075763;28;19912;-60
2022/11/06 06:17:24;;;;;;;;;;;19.40;48.50;;;;;;5061300;28;19957;-60
2022/11/06 06:19:50;;;;;;;;;;;19.40;48.60;;;;;;5039971;28;19915;-60
2022/11/06 06:22:15;;;;;;;;;;;19.40;48.50;;;;;;5044289;28;19908;-60
2022/11/06 06:24:41;;;;;;;;;;;19.40;48.40;;;;;;5069228;28;20313;-60
2022/11/06 06:27:06;;;;;;;;;;;19.40;48.30;;;;;;5059392;28;20766;-60
2022/11/06 06:29:32;;;;;;;;;;;19.40;48.40;;;;;;5054956;28;19927;-60
2022/11/06 06:31:57;;;;;;;;;;;19.40;48.60;;;;;;5076352;28;20378;-60
2022/11/06 06:34:23;;;;;;;;;;;19.40;48.40;;;;;;5094481;28;19946;-60
2022/11/06 06:36:49;;;;;;;;;;;19.40;48.40;;;;;;5075341;28;19923;-60
2022/11/06 06:39:15;;;;;;;;;;;19.40;48.30;;;;;;5054492;28;19912;-60
2022/11/06 06:41:40;;;;;;;;;;;19.40;48.40;;;;;;5094175;28;19908;-60
2022/11/06 06:44:05;;;;;;;;;;;19.40;48.40;;;;;;5074625;28;20272;-60
2022/11/06 06:46:31;;;;;;;;;;;19.40;48.30;;;;;;5094352;28;20283;-60
2022/11/06 06:48:56;;;;;;;;;;;19.40;48.40;;;;;;5053841;28;19940;-60
2022/11/06 06:51:22;;;;;;;;;;;19.40;48.30;;;;;;5061516;28;19909;-60
2022/11/06 06:53:47;;;;;;;;;;;19.50;48.50;;;;;;5057540;28;19908;-60
2022/11/06 06:56:13;;;;;;;;;;;19.40;48.30;;;;;;5095883;28;19939;-60
2022/11/06 06:58:39;;;;;;;;;;;19.40;48.30;;;;;;5088186;28;20030;-60
2022/11/06 07:01:04;;;;;;;;;;;19.40;48.30;;;;;;5093029;28;19934;-60
2022/11/06 07:03:30;;;;;;;;;;;19.40;48.20;;;;;;5059311;28;19915;-60
2022/11/06 07:05:56;;;;;;;;;;;19.40;48.30;;;;;;5076020;28;19915;-60
2022/11/06 07:08:21;;;;;;;;;;;19.40;48.20;;;;;;5073128;28;20272;-60
2022/11/06 07:10:47;;;;;;;;;;;19.40;48.30;;;;;;5070070;28;19938;-60
2022/11/06 07:13:12;;;;;;;;;;;19.40;48.20;;;;;;5057136;28;19908;-60
2022/11/06 07:15:37;;;;;;;;;;;19.50;48.20;;;;;;5093692;28;19958;-60
2022/11/06 07:18:04;;;;;;;;;;;19.50;48.20;;;;;;5075761;28;19916;-60
2022/11/06 07:20:29;;;;;;;;;;;19.50;48.30;;;;;;5074201;28;19916;-60
2022/11/06 07:22:55;;;;;;;;;;;19.50;48.20;;;;;;5075366;28;19908;-61
2022/11/06 07:25:20;;;;;;;;;;;19.50;48.20;;;;;;5093533;28;19959;-60
2022/11/06 07:27:46;;;;;;;;;;;19.50;48.20;;;;;;5074395;28;20481;-60
2022/11/06 07:30:11;;;;;;;;;;;19.50;48.00;;;;;;5072863;28;19912;-60
2022/11/06 07:32:36;;;;;;;;;;;19.50;48.10;;;;;;5073594;28;19912;-60
2022/11/06 07:35:02;;;;;;;;;;;19.50;47.90;;;;;;5093637;28;20357;-60
2022/11/06 07:37:27;;;;;;;;;;;19.50;48.00;;;;;;5093803;28;20280;-60
2022/11/06 07:39:53;;;;;;;;;;;19.50;48.20;;;;;;5074788;28;20355;-60
2022/11/06 07:42:18;;;;;;;;;;;19.50;48.20;;;;;;5091674;28;20553;-60
2022/11/06 07:44:44;;;;;;;;;;;19.50;48.10;;;;;;5074571;28;20271;-60
2022/11/06 07:47:09;;;;;;;;;;;19.50;48.00;;;;;;5075059;28;20351;-60
2022/11/06 07:49:34;;;;;;;;;;;19.50;48.00;;;;;;5068172;28;20316;-60
2022/11/06 07:52:00;;;;;;;;;;;19.50;48.00;;;;;;5074412;28;20252;-60
2022/11/06 07:54:25;;;;;;;;;;;19.50;47.90;;;;;;5091461;28;19993;-60
2022/11/06 07:56:51;;;;;;;;;;;19.50;48.00;;;;;;5073575;28;19912;-60
2022/11/06 07:59:16;;;;;;;;;;;19.50;48.20;;;;;;5091752;28;19942;-60
2022/11/06 08:01:42;;;;;;;;;;;19.50;48.20;;;;;;5092410;28;19957;-60
2022/11/06 08:04:07;;;;;;;;;;;19.50;48.20;;;;;;5069856;28;19912;-60
2022/11/06 08:06:33;;;;;;;;;;;19.50;48.20;;;;;;5079015;28;20379;-60
2022/11/06 08:08:58;;;;;;;;;;;19.50;48.20;;;;;;5063510;28;19965;-60
2022/11/06 08:11:24;;;;;;;;;;;19.50;48.30;;;;;;5074449;28;19968;-60
2022/11/06 08:13:49;;;;;;;;;;;19.50;48.20;;;;;;5057557;28;19912;-60
2022/11/06 08:16:14;;;;;;;;;;;19.50;48.20;;;;;;5096875;28;20366;-60
2022/11/06 08:18:40;;;;;;;;;;;19.50;48.20;;;;;;5103405;28;20374;-60
2022/11/06 08:21:06;;;;;;;;;;;19.50;48.10;;;;;;5073236;28;19912;-60
2022/11/06 08:23:31;;;;;;;;;;;19.50;48.10;;;;;;5062387;28;19915;-60
2022/11/06 08:25:57;;;;;;;;;;;19.50;48.20;;;;;;5074491;28;19915;-61
2022/11/06 08:28:23;;;;;;;;;;;19.50;48.20;;;;;;5073394;28;20404;-60
2022/11/06 08:30:48;;;;;;;;;;;19.60;48.10;;;;;;5055769;28;19916;-60
2022/11/06 08:33:14;;;;;;;;;;;19.50;48.00;;;;;;5092244;28;19908;-60
2022/11/06 08:35:39;;;;;;;;;;;19.50;48.10;;;;;;5069021;28;19973;-60
2022/11/06 08:38:05;;;;;;;;;;;19.50;48.20;;;;;;5055167;28;19916;-60
2022/11/06 08:40:30;;;;;;;;;;;19.50;48.20;;;;;;5056696;28;19912;-60
2022/11/06 08:43:02;;;;;;;;;;;19.50;48.20;;;;;;5073518;28;20023;-60
2022/11/06 08:45:28;;;;;;;;;;;19.50;48.20;;;;;;5074443;28;19908;-60
2022/11/06 08:47:53;;;;;;;;;;;19.50;48.20;;;;;;5092212;28;19923;-60
2022/11/06 08:50:18;;;;;;;;;;;19.50;48.20;;;;;;5052762;28;20292;-60
2022/11/06 08:52:44;;;;;;;;;;;19.50;48.20;;;;;;5057987;28;19908;-60
2022/11/06 08:55:09;;;;;;;;;;;19.50;48.20;;;;;;5074443;28;19920;-60
2022/11/06 08:57:35;;;;;;;;;;;19.60;48.30;;;;;;5091613;28;19908;-60
2022/11/06 09:00:00;;;;;;;;;;;19.50;48.20;;;;;;5070486;28;19994;-60
2022/11/06 09:02:26;;;;;;;;;;;19.60;48.30;;;;;;5053207;28;19912;-60
2022/11/06 09:04:51;;;;;;;;;;;19.60;48.20;;;;;;5083964;28;20007;-60
2022/11/06 09:07:16;;;;;;;;;;;19.60;48.10;;;;;;5063465;28;19913;-60
2022/11/06 09:09:42;;;;;;;;;;;19.60;48.20;;;;;;5068685;28;19916;-60
2022/11/06 09:12:07;;;;;;;;;;;19.60;48.20;;;;;;5069909;28;20030;-60
2022/11/06 09:14:33;;;;;;;;;;;19.60;48.30;;;;;;5078224;28;19912;-60
2022/11/06 09:16:58;;;;;;;;;;;19.60;48.30;;;;;;5053224;28;20054;-60
2022/11/06 09:19:24;;;;;;;;;;;19.60;48.40;;;;;;5053836;28;20333;-61
2022/11/06 09:21:49;;;;;;;;;;;19.60;48.40;;;;;;5071804;28;19920;-60
2022/11/06 09:24:15;;;;;;;;;;;19.60;49.00;;;;;;5087512;28;19998;-60
2022/11/06 09:26:40;;;;;;;;;;;19.60;48.40;;;;;;5091647;28;19997;-60
2022/11/06 09:29:06;;;;;;;;;;;19.60;48.40;;;;;;5071700;28;19974;-60
2022/11/06 09:31:31;;;;;;;;;;;19.60;48.40;;;;;;5091003;28;19920;-60
2022/11/06 09:33:57;;;;;;;;;;;19.60;48.40;;;;;;5072596;28;20379;-60
2022/11/06 09:36:22;;;;;;;;;;;19.60;48.50;;;;;;5091849;28;19908;-60
2022/11/06 09:38:47;;;;;;;;;;;19.50;48.60;;;;;;5070965;28;19912;-60
2022/11/06 09:41:26;;;;;;;;;;;19.60;48.70;;;;;;5071860;28;19931;-60
2022/11/06 09:44:05;;;;;;;;;;;19.60;48.60;;;;;;5072538;28;19998;-60
2022/11/06 09:46:31;;;;;;;;;;;19.60;48.60;;;;;;5070642;28;19916;-60
2022/11/06 09:49:01;;;;;;;;;;;19.60;48.50;;;;;;5076622;28;19917;-60
2022/11/06 09:51:29;;;;;;;;;;;19.70;48.60;;;;;;5072782;28;19920;-60
2022/11/06 09:54:30;;;;;;;;;;;19.70;48.70;;;;;;5056960;28;19965;-60
2022/11/06 09:57:00;;;;;;;;;;;19.70;48.70;;;;;;4973231;28;20333;-60
2022/11/06 09:59:25;;;;;;;;;;;19.60;48.70;;;;;;5057875;28;19912;-60
2022/11/06 10:01:52;;;;;;;;;;;19.60;48.60;;;;;;5054954;28;19935;-60
2022/11/06 10:04:36;;;;;;;;;;;19.70;48.80;;;;;;5073520;28;19912;-60
2022/11/06 10:07:02;;;;;;;;;;;19.60;48.70;;;;;;5100799;28;20378;-60
2022/11/06 10:09:27;;;;;;;;;;;19.60;48.80;;;;;;5093174;28;19916;-60
2022/11/06 10:11:53;;;;;;;;;;;19.60;48.90;;;;;;5094001;28;19953;-60
2022/11/06 10:14:18;;;;;;;;;;;19.70;48.80;;;;;;5092650;28;19916;-60
2022/11/06 10:16:54;;;;;;;;;;;19.70;48.90;;;;;;5093414;28;20073;-60
2022/11/06 10:19:37;;;;;;;;;;;19.70;48.90;;;;;;5059281;28;20016;-60
2022/11/06 10:22:15;;;;;;;;;;;19.70;48.80;;;;;;5054784;28;19912;-60
2022/11/06 10:24:43;;;;;;;;;;;19.70;48.90;;;;;;5046461;28;20429;-60
2022/11/06 10:27:20;;;;;;;;;;;19.70;48.80;;;;;;5076243;28;19947;-60
2022/11/06 10:30:02;;;;;;;;;;;19.70;48.80;;;;;;5071671;28;19927;-60
2022/11/06 10:32:40;;;;;;;;;;;19.70;49.00;;;;;;5073147;28;19952;-60
2022/11/06 10:35:07;;;;;;;;;;;19.70;49.00;;;;;;5074642;28;19923;-60
2022/11/06 10:37:39;;;;;;;;;;;19.70;49.00;;;;;;5054551;28;19912;-60
2022/11/06 10:40:04;;;;;;;;;;;19.70;49.00;;;;;;5050162;28;19913;-60
2022/11/06 10:42:30;;;;;;;;;;;19.70;49.00;;;;;;5065119;28;19919;-60
2022/11/06 10:44:56;;;;;;;;;;;19.70;49.00;;;;;;5074753;28;20330;-60
2022/11/06 10:47:22;;;;;;;;;;;19.70;49.30;;;;;;5092918;28;19912;-60
2022/11/06 10:49:51;;;;;;;;;;;19.80;49.40;;;;;;5075924;28;19912;-61
2022/11/06 10:52:29;;;;;;;;;;;19.90;49.50;;;;;;5089483;28;19927;-59
2022/11/06 10:54:55;;;;;;;;;;;20.00;49.30;;;;;;5073795;28;19908;-61
2022/11/06 10:57:40;;;;;;;;;;;20.20;49.20;;;;;;5073932;28;19920;-61
2022/11/06 11:00:09;;;;;;;;;;;20.40;49.00;;;;;;5091407;28;20607;-60
2022/11/06 11:02:35;;;;;;;;;;;20.50;48.70;;;;;;5061428;28;19920;-60
2022/11/06 11:05:01;;;;;;;;;;;20.60;48.50;;;;;;5072017;28;20287;-60
2022/11/06 11:07:30;;;;;;;;;;;20.70;48.60;;;;;;5047523;28;19919;-59
2022/11/06 11:09:55;;;;;;;;;;;20.70;48.50;;;;;;5046674;28;19923;-60
2022/11/06 11:12:22;;;;;;;;;;;20.80;48.30;;;;;;5069927;28;19913;-60
2022/11/06 11:15:03;;;;;;;;;;;20.80;48.20;;;;;;5063140;28;19923;-60
2022/11/06 11:17:28;;;;;;;;;;;21.00;48.10;;;;;;5069634;28;19920;-60
2022/11/06 11:19:54;;;;;;;;;;;21.10;48.00;;;;;;5084477;28;19923;-60
2022/11/06 11:22:19;;;;;;;;;;;21.20;48.00;;;;;;5084776;28;19947;-60
2022/11/06 11:24:58;;;;;;;;;;;21.20;48.00;;;;;;5064465;28;19916;-60
2022/11/06 11:27:23;;;;;;;;;;;21.20;48.00;;;;;;5068800;28;19912;-60
2022/11/06 11:29:49;;;;;;;;;;;21.20;47.90;;;;;;5066626;28;20350;-60
2022/11/06 11:32:15;;;;;;;;;;;21.30;48.00;;;;;;5065356;28;20360;-60
2022/11/06 11:34:44;;;;;;;;;;;21.30;48.00;;;;;;5074515;28;20021;-60
2022/11/06 11:37:19;;;;;;;;;;;21.30;48.00;;;;;;5071920;28;20462;-60
2022/11/06 11:39:44;;;;;;;;;;;21.40;48.00;;;;;;5072751;28;19965;-60
2022/11/06 11:42:23;;;;;;;;;;;21.40;48.00;;;;;;5086194;28;19938;-60
2022/11/06 11:45:04;;;;;;;;;;;21.50;48.30;;;;;;5048132;28;19954;-60
2022/11/06 11:47:30;;;;;;;;;;;21.50;48.30;;;;;;5066648;28;20302;-60
2022/11/06 11:49:55;;;;;;;;;;;21.50;48.30;;;;;;5063515;28;19916;-60
2022/11/06 11:52:20;;;;;;;;;;;21.60;48.30;;;;;;5079407;28;19912;-60
2022/11/06 11:54:47;;;;;;;;;;;21.70;48.30;;;;;;5067576;28;19921;-60
2022/11/06 11:57:23;;;;;;;;;;;21.70;48.70;;;;;;5064467;28;19961;-60
2022/11/06 11:59:49;;;;;;;;;;;21.60;48.40;;;;;;5066134;28;20214;-60
2022/11/06 12:02:16;;;;;;;;;;;21.60;48.50;;;;;;5063864;28;20375;-60
2022/11/06 12:04:42;;;;;;;;;;;21.60;48.60;;;;;;5063379;28;19920;-60
2022/11/06 12:07:13;;;;;;;;;;;21.70;48.80;;;;;;5065701;28;20448;-60
2022/11/06 12:09:42;;;;;;;;;;;21.70;48.80;;;;;;5047936;28;20367;-60
2022/11/06 12:12:17;;;;;;;;;;;21.70;48.80;;;;;;5080682;28;19923;-59
2022/11/06 12:14:42;;;;;;;;;;;21.70;48.80;;;;;;5064274;28;20330;-60
2022/11/06 12:17:10;;;;;;;;;;;21.70;49.10;;;;;;5085875;28;19963;-60
2022/11/06 12:19:36;;;;;;;;;;;21.70;49.20;;;;;;5068513;28;19912;-60
2022/11/06 12:22:03;;;;;;;;;;;21.80;49.20;;;;;;5051986;28;19913;-60
2022/11/06 12:24:38;;;;;;;;;;;21.80;49.30;;;;;;5063718;28;19916;-60
2022/11/06 12:27:05;;;;;;;;;;;21.90;49.30;;;;;;5058785;28;19916;-60
2022/11/06 12:29:31;;;;;;;;;;;22.00;49.30;;;;;;5074379;28;19931;-60
2022/11/06 12:31:59;;;;;;;;;;;21.90;49.50;;;;;;5077795;28;21371;-60
2022/11/06 12:34:24;;;;;;;;;;;21.90;49.70;;;;;;5078404;28;20313;-60
2022/11/06 12:36:56;;;;;;;;;;;21.80;49.80;;;;;;5082807;28;20414;-60
2022/11/06 12:39:22;;;;;;;;;;;21.80;49.90;;;;;;5063970;28;20340;-60
2022/11/06 12:41:48;;;;;;;;;;;21.80;50.00;;;;;;5040342;28;19919;-60
2022/11/06 12:44:13;;;;;;;;;;;21.80;49.90;;;;;;5044115;28;21682;-60
2022/11/06 12:46:53;;;;;;;;;;;21.90;50.00;;;;;;5076468;28;19923;-61
2022/11/06 12:49:25;;;;;;;;;;;21.90;49.80;;;;;;5059925;28;20019;-60
2022/11/06 12:51:54;;;;;;;;;;;21.90;49.80;;;;;;5060741;28;19916;-60
2022/11/06 12:54:29;;;;;;;;;;;21.90;49.80;;;;;;5061134;28;19919;-60
2022/11/06 12:57:00;;;;;;;;;;;22.00;49.80;;;;;;5064712;28;19912;-60
2022/11/06 12:59:31;;;;;;;;;;;22.00;49.70;;;;;;5067661;28;19959;-60
2022/11/06 13:02:00;;;;;;;;;;;22.00;49.70;;;;;;5060045;28;20329;-60
2022/11/06 13:04:28;;;;;;;;;;;22.00;49.80;;;;;;5065923;28;19930;-60
2022/11/06 13:07:03;;;;;;;;;;;22.00;49.70;;;;;;5066143;28;19955;-61
2022/11/06 13:09:34;;;;;;;;;;;22.10;49.60;;;;;;5063628;28;19917;-60
2022/11/06 13:12:02;;;;;;;;;;;22.10;49.60;;;;;;5077348;28;20339;-60
2022/11/06 13:14:30;;;;;;;;;;;22.10;49.70;;;;;;5077218;28;19928;-60
2022/11/06 13:16:59;;;;;;;;;;;22.10;49.70;;;;;;5061232;28;19999;-60
2022/11/06 13:19:25;;;;;;;;;;;22.00;49.60;;;;;;5065093;28;19912;-60
2022/11/06 13:21:50;;;;;;;;;;;22.00;49.70;;;;;;5062486;28;19934;-60
2022/11/06 13:24:17;;;;;;;;;;;22.00;49.80;;;;;;5067594;28;20003;-60
2022/11/06 13:26:46;;;;;;;;;;;22.00;49.60;;;;;;5062306;28;20284;-60
2022/11/06 13:29:12;;;;;;;;;;;22.10;49.60;;;;;;5067822;28;19925;-60
2022/11/06 13:31:50;;;;;;;;;;;22.10;49.40;;;;;;5055019;28;20322;-60
2022/11/06 13:34:21;;;;;;;;;;;22.10;49.50;;;;;;5074527;28;20318;-60
2022/11/06 13:36:46;;;;;;;;;;;22.10;49.40;;;;;;5072382;28;20264;-61
2022/11/06 13:39:20;;;;;;;;;;;22.10;49.50;;;;;;5066122;28;19928;-60
2022/11/06 13:41:45;;;;;;;;;;;22.10;49.80;;;;;;5069754;28;19915;-59
2022/11/06 13:44:14;;;;;;;;;;;22.10;49.70;;;;;;5068458;28;19917;-59
2022/11/06 13:46:48;;;;;;;;;;;22.20;49.60;;;;;;5068855;28;20410;-59
2022/11/06 13:49:23;;;;;;;;;;;22.20;49.60;;;;;;5068232;28;19920;-59
2022/11/06 13:51:50;;;;;;;;;;;22.20;49.70;;;;;;5090066;28;20014;-59
2022/11/06 13:54:24;;;;;;;;;;;22.20;49.70;;;;;;5076606;28;19912;-58
2022/11/06 13:57:03;;;;;;;;;;;22.20;49.90;;;;;;5086455;28;20035;-59
2022/11/06 13:59:48;;;;;;;;;;;22.10;50.00;;;;;;5063783;28;19916;-59
2022/11/06 14:02:32;;;;;;;;;;;22.20;50.00;;;;;;5079001;28;20329;-59
2022/11/06 14:05:16;;;;;;;;;;;22.20;50.00;;;;;;5085133;28;19912;-59
2022/11/06 14:07:41;;;;;;;;;;;22.10;49.90;;;;;;5081572;28;20007;-59
2022/11/06 14:10:20;;;;;;;;;;;22.20;50.00;;;;;;5063602;28;20332;-59
2022/11/06 14:12:46;;;;;;;;;;;22.10;50.00;;;;;;5063585;28;19919;-59
2022/11/06 14:15:22;;;;;;;;;;;22.10;49.90;;;;;;5052971;28;19942;-59
2022/11/06 14:17:53;;;;;;;;;;;22.10;49.80;;;;;;5067785;28;19938;-59
2022/11/06 14:20:29;;;;;;;;;;;22.20;49.90;;;;;;5064158;28;20742;-59
2022/11/06 14:22:54;;;;;;;;;;;22.10;49.80;;;;;;5046708;28;19920;-59
2022/11/06 14:25:26;;;;;;;;;;;22.10;49.90;;;;;;5065712;28;19916;-59
2022/11/06 14:27:52;;;;;;;;;;;22.10;49.90;;;;;;5069759;28;19934;-59
2022/11/06 14:30:17;;;;;;;;;;;22.10;49.90;;;;;;5086497;28;19913;-59
2022/11/06 14:32:43;;;;;;;;;;;22.20;50.00;;;;;;5091879;28;20359;-59
2022/11/06 14:35:27;;;;;;;;;;;22.20;50.00;;;;;;5073959;28;20032;-59